Terminal Aerodrome Forecast
Issued by NWS Omaha/Valley, NE

Home | Current Version | Previous Version | Graphics & Text | Print | Product List | Glossary On
Versions: 1 2 3 4 5 6 7 8 9 10 11 12 13 14 15 16 17 18 19 20 21 22 23 24 25 26 27 28 29 30 31 32 33
000
FTUS43 KOAX 292322
TAFOFK
TAF
KOFK 292322Z 3000/3024 34005KT P6SM SCT050 BKN120
     FM300900 30003KT 4SM BR SCT008
      TEMPO 3011/3014 1SM BR OVC004
     FM301600 30008KT P6SM SCT250
     FM302100 19008KT P6SM SCT040=

USA.gov is the U.S. government's official web portal to all federal, state and local government web resources and services.